Time;durP1;ratioP1;P1;durP2;ratioP2;P2;SDS_P1;SDS_P2;PMS_P1;PMS_P2;Temp;Humidity;BMP_temperature;BMP_pressure;BME280_temperature;BME280_humidity;BME280_pressure;Samples;Min_cycle;Max_cycle;Signal;HPM_P1;HPM_P2
2023/05/08 00:01:30;;;;;;;25.67;17.08;;;16.00;99.90;;;;;;6250445;28;20072;-76
2023/05/08 00:04:32;;;;;;;26.02;17.70;;;16.00;99.90;;;;;;6248181;28;20042;-77
2023/05/08 00:07:33;;;;;;;24.10;17.92;;;16.00;99.90;;;;;;6249535;28;20057;-77
2023/05/08 00:10:35;;;;;;;23.80;17.00;;;16.00;99.90;;;;;;6249361;28;20045;-76
2023/05/08 00:13:40;;;;;;;23.10;16.27;;;16.00;99.90;;;;;;6264509;28;20052;-77
2023/05/08 00:16:41;;;;;;;23.08;15.55;;;16.00;99.90;;;;;;6273965;28;20037;-77
2023/05/08 00:19:43;;;;;;;24.83;17.75;;;16.00;99.90;;;;;;6273888;28;20419;-77
2023/05/08 00:22:45;;;;;;;22.27;15.32;;;16.00;99.90;;;;;;6273989;28;20056;-77
2023/05/08 00:25:46;;;;;;;27.23;16.70;;;16.00;99.90;;;;;;6273539;28;20041;-77
2023/05/08 00:28:49;;;;;;;25.23;17.92;;;16.00;99.90;;;;;;6274088;28;20067;-76
2023/05/08 00:31:51;;;;;;;29.55;18.92;;;16.00;99.90;;;;;;6273166;28;20044;-77
2023/05/08 00:34:53;;;;;;;23.90;19.30;;;16.00;99.90;;;;;;6274031;28;20518;-76
2023/05/08 00:37:55;;;;;;;29.48;19.98;;;16.00;99.90;;;;;;6273844;28;20045;-77
2023/05/08 00:40:57;;;;;;;30.73;20.20;;;16.00;99.90;;;;;;6269984;28;20443;-77
2023/05/08 00:44:00;;;;;;;26.80;20.88;;;16.10;99.90;;;;;;6273921;28;20132;-77
2023/05/08 00:47:01;;;;;;;25.52;18.48;;;16.00;99.90;;;;;;6273490;28;20072;-77
2023/05/08 00:50:04;;;;;;;25.40;18.88;;;16.00;99.90;;;;;;6286761;22;20049;-77
2023/05/08 00:53:06;;;;;;;28.02;19.67;;;16.00;99.90;;;;;;6197446;28;20043;-77
2023/05/08 00:56:11;;;;;;;27.30;17.83;;;16.00;99.90;;;;;;6177340;28;20177;-76
2023/05/08 00:59:17;;;;;;;30.80;18.83;;;16.00;99.90;;;;;;6175227;28;20046;-76
2023/05/08 01:02:19;;;;;;;29.30;19.33;;;16.00;99.90;;;;;;6176110;28;20054;-76
2023/05/08 01:05:21;;;;;;;25.92;19.17;;;16.00;99.90;;;;;;6178641;28;20051;-77
2023/05/08 01:08:23;;;;;;;26.58;18.10;;;16.00;99.90;;;;;;6181667;28;20054;-77
2023/05/08 01:11:31;;;;;;;23.55;19.02;;;16.00;99.90;;;;;;6189333;28;20082;-76
2023/05/08 01:14:44;;;;;;;26.33;18.45;;;16.00;99.90;;;;;;6192921;28;20453;-76
2023/05/08 01:17:57;;;;;;;25.83;19.55;;;16.00;99.90;;;;;;6176536;28;20065;-77
2023/05/08 01:21:05;;;;;;;24.23;18.98;;;16.10;99.90;;;;;;6174234;28;20121;-76
2023/05/08 01:24:29;;;;;;;25.33;18.63;;;16.00;99.90;;;;;;6174582;28;20050;-77
2023/05/08 01:28:00;;;;;;;28.85;17.38;;;16.00;99.90;;;;;;6173853;28;20051;-77
2023/05/08 01:31:10;;;;;;;25.88;18.23;;;15.90;99.90;;;;;;6173717;28;20053;-77
2023/05/08 01:34:21;;;;;;;25.75;20.55;;;15.90;99.90;;;;;;6173445;28;20051;-77
2023/05/08 01:37:34;;;;;;;34.75;20.05;;;15.90;99.90;;;;;;6172986;28;20125;-77
2023/05/08 01:40:44;;;;;;;20.35;17.08;;;15.90;99.90;;;;;;6173695;28;20050;-77
2023/05/08 01:43:53;;;;;;;25.95;16.90;;;15.90;99.90;;;;;;6173599;28;20053;-77
2023/05/08 01:46:55;;;;;;;21.95;19.13;;;15.90;99.90;;;;;;6173342;28;20055;-76
2023/05/08 01:50:04;;;;;;;27.27;18.42;;;15.90;99.90;;;;;;6173131;28;20042;-76
2023/05/08 01:53:10;;;;;;;22.08;17.25;;;15.80;99.90;;;;;;6172769;28;20130;-76
2023/05/08 01:56:15;;;;;;;26.23;18.17;;;15.90;99.90;;;;;;6173072;28;20050;-76
2023/05/08 01:59:21;;;;;;;25.05;18.17;;;15.80;99.90;;;;;;6173722;28;20054;-76
2023/05/08 02:02:24;;;;;;;24.38;16.90;;;15.90;99.90;;;;;;6172788;28;20051;-76
2023/05/08 02:05:28;;;;;;;19.85;15.32;;;15.80;99.90;;;;;;6172778;28;20436;-76
2023/05/08 02:08:31;;;;;;;21.25;17.75;;;15.80;99.90;;;;;;6173120;28;20050;-76
2023/05/08 02:11:35;;;;;;;24.00;16.52;;;15.80;99.90;;;;;;6172975;28;20051;-77
2023/05/08 02:14:38;;;;;;;21.55;16.20;;;15.80;99.90;;;;;;6173502;28;20046;-76
2023/05/08 02:17:41;;;;;;;21.95;17.13;;;15.80;99.90;;;;;;6195543;28;20046;-77
2023/05/08 02:20:44;;;;;;;19.48;16.50;;;15.80;99.90;;;;;;6197042;28;20043;-76
2023/05/08 02:23:47;;;;;;;20.50;16.80;;;15.80;99.90;;;;;;6197318;28;20057;-77
2023/05/08 02:26:51;;;;;;;22.00;16.25;;;15.80;99.90;;;;;;6196670;28;20042;-76
2023/05/08 02:29:55;;;;;;;20.33;17.27;;;15.80;99.90;;;;;;6187548;28;20046;-76
2023/05/08 02:32:58;;;;;;;22.10;15.98;;;15.80;99.90;;;;;;6172504;28;20174;-76
2023/05/08 02:36:03;;;;;;;25.92;17.42;;;15.80;99.90;;;;;;6173196;28;20061;-76
2023/05/08 02:39:07;;;;;;;19.33;15.68;;;15.80;99.90;;;;;;6172498;28;20521;-77
2023/05/08 02:42:08;;;;;;;22.30;15.85;;;15.80;99.90;;;;;;6172329;28;20043;-77
2023/05/08 02:45:11;;;;;;;21.13;16.02;;;15.80;99.90;;;;;;6172557;28;20054;-77
2023/05/08 02:48:19;;;;;;;20.13;16.27;;;15.80;99.90;;;;;;6171800;28;20047;-77
2023/05/08 02:51:26;;;;;;;;;;;15.80;99.90;;;;;;6173706;28;20050;-77
2023/05/08 02:54:36;;;;;;;21.33;16.27;;;15.90;99.90;;;;;;6172383;28;20512;-76
2023/05/08 02:57:46;;;;;;;20.58;14.88;;;15.80;99.90;;;;;;6172567;28;20046;-77
2023/05/08 03:01:05;;;;;;;19.92;17.83;;;15.90;99.90;;;;;;6172107;28;20043;-76
2023/05/08 03:04:10;;;;;;;19.35;15.45;;;15.90;99.90;;;;;;6172241;28;20426;-77
2023/05/08 03:07:15;;;;;;;21.30;16.30;;;15.90;99.90;;;;;;6172382;28;20047;-76
2023/05/08 03:10:21;;;;;;;21.00;18.08;;;16.00;99.90;;;;;;6171826;28;20051;-77
2023/05/08 03:13:23;;;;;;;22.98;17.65;;;16.00;99.90;;;;;;6171912;28;20050;-77
2023/05/08 03:16:27;;;;;;;23.48;18.33;;;16.00;99.90;;;;;;6172261;28;20055;-77
2023/05/08 03:19:36;;;;;;;18.80;15.98;;;16.00;99.90;;;;;;6172698;28;20058;-77
2023/05/08 03:22:41;;;;;;;21.52;17.98;;;15.90;99.90;;;;;;6174429;28;20051;-77
2023/05/08 03:25:45;;;;;;;20.50;16.02;;;15.90;99.90;;;;;;6177290;28;20058;-77
2023/05/08 03:28:48;;;;;;;20.27;16.58;;;15.90;99.90;;;;;;6176691;28;20264;-77
2023/05/08 03:31:51;;;;;;;21.13;15.50;;;15.90;99.90;;;;;;6176890;28;20054;-76
2023/05/08 03:34:55;;;;;;;19.88;16.80;;;15.90;99.90;;;;;;6176777;28;20051;-76
2023/05/08 03:37:58;;;;;;;18.63;14.85;;;15.90;99.90;;;;;;6176503;28;20113;-76
2023/05/08 03:41:00;;;;;;;20.60;16.08;;;15.90;99.90;;;;;;6175722;28;20050;-77
2023/05/08 03:44:03;;;;;;;22.45;18.95;;;15.90;99.90;;;;;;6176646;28;20054;-76
2023/05/08 03:47:05;;;;;;;21.33;19.02;;;16.00;99.90;;;;;;6175979;28;20520;-77
2023/05/08 03:50:08;;;;;;;25.58;18.45;;;16.00;99.90;;;;;;6175757;28;20046;-76
2023/05/08 03:53:11;;;;;;;20.30;17.33;;;16.00;99.90;;;;;;6175791;28;20051;-76
2023/05/08 03:56:13;;;;;;;27.23;18.88;;;16.00;99.90;;;;;;6175867;28;20054;-76
2023/05/08 03:59:21;;;;;;;22.45;16.65;;;16.00;99.90;;;;;;6176020;28;20053;-76
2023/05/08 04:02:28;;;;;;;;;;;16.00;99.90;;;;;;6176250;28;20053;-76
2023/05/08 04:05:36;;;;;;;23.20;17.50;;;16.10;99.90;;;;;;6175643;28;19922;-76
2023/05/08 04:08:42;;;;;;;;;;;16.10;99.90;;;;;;6176185;28;20043;-76
2023/05/08 04:11:59;;;;;;;19.60;16.48;;;16.10;99.90;;;;;;6175735;28;19922;-76
2023/05/08 04:15:04;;;;;;;18.50;16.42;;;16.10;99.90;;;;;;6183697;28;20045;-76
2023/05/08 04:18:09;;;;;;;21.67;16.67;;;16.10;99.90;;;;;;6198804;28;20042;-76
2023/05/08 04:21:15;;;;;;;22.60;16.17;;;16.10;99.90;;;;;;6194306;28;20063;-76
2023/05/08 04:24:20;;;;;;;24.77;17.85;;;16.10;99.90;;;;;;6193367;28;20605;-76
2023/05/08 04:27:23;;;;;;;18.30;16.20;;;16.10;99.90;;;;;;6200090;28;20054;-76
2023/05/08 04:30:25;;;;;;;23.08;17.95;;;16.10;99.90;;;;;;6199157;28;20104;-76
2023/05/08 04:33:29;;;;;;;27.80;18.77;;;16.10;99.90;;;;;;6198786;28;20057;-76
2023/05/08 04:36:32;;;;;;;35.53;18.55;;;16.10;99.90;;;;;;6200588;28;20488;-76
2023/05/08 04:39:35;;;;;;;25.20;18.02;;;16.10;99.90;;;;;;6179299;28;20508;-76
2023/05/08 04:42:38;;;;;;;23.52;17.40;;;16.10;99.90;;;;;;6174742;28;20038;-76
2023/05/08 04:45:40;;;;;;;22.38;15.88;;;16.20;99.90;;;;;;6174524;28;20054;-76
2023/05/08 04:48:41;;;;;;;24.58;18.65;;;16.20;99.90;;;;;;6175107;28;20038;-76
2023/05/08 04:51:43;;;;;;;21.58;17.20;;;16.20;99.90;;;;;;6174884;28;20456;-76
2023/05/08 04:54:46;;;;;;;19.58;17.00;;;16.20;99.90;;;;;;6173874;28;20432;-76
2023/05/08 04:57:48;;;;;;;20.73;17.75;;;16.20;99.90;;;;;;6174576;28;20058;-76
2023/05/08 05:00:49;;;;;;;23.00;18.20;;;16.20;99.90;;;;;;6174189;28;20047;-76
2023/05/08 05:03:51;;;;;;;29.77;19.92;;;16.20;99.90;;;;;;6174309;28;20137;-76
2023/05/08 05:06:53;;;;;;;33.03;19.15;;;16.20;99.90;;;;;;6174263;28;20046;-76
2023/05/08 05:09:56;;;;;;;25.98;20.90;;;16.20;99.90;;;;;;6174117;28;20051;-76
2023/05/08 05:12:57;;;;;;;27.40;20.63;;;16.20;99.90;;;;;;6173479;28;20069;-76
2023/05/08 05:15:59;;;;;;;26.90;19.80;;;16.20;99.90;;;;;;6174247;28;20416;-76
2023/05/08 05:19:01;;;;;;;25.80;19.70;;;16.20;99.90;;;;;;6173876;28;20050;-76
2023/05/08 05:22:05;;;;;;;30.08;22.33;;;16.30;99.90;;;;;;6173676;28;20049;-76
2023/05/08 05:25:08;;;;;;;39.17;23.40;;;16.30;99.90;;;;;;6173915;28;20043;-76
2023/05/08 05:28:10;;;;;;;41.08;24.63;;;16.30;99.90;;;;;;6173502;28;20050;-76
2023/05/08 05:31:12;;;;;;;36.08;24.02;;;16.30;99.90;;;;;;6173750;28;20054;-76
2023/05/08 05:34:13;;;;;;;38.58;24.05;;;16.30;99.90;;;;;;6173349;28;20057;-76
2023/05/08 05:37:15;;;;;;;38.22;25.33;;;16.30;99.90;;;;;;6173605;28;20066;-76
2023/05/08 05:40:19;;;;;;;38.00;24.83;;;16.30;99.90;;;;;;6173311;28;20407;-76
2023/05/08 05:43:20;;;;;;;47.63;28.02;;;16.40;99.90;;;;;;6173585;28;20054;-76
2023/05/08 05:46:26;;;;;;;44.20;27.33;;;16.40;99.90;;;;;;6175753;28;20046;-76
2023/05/08 05:49:28;;;;;;;44.70;27.75;;;16.40;99.90;;;;;;6173226;28;20133;-76
2023/05/08 05:52:30;;;;;;;47.58;29.33;;;16.40;99.90;;;;;;6173228;28;20517;-76
2023/05/08 05:55:34;;;;;;;49.33;32.67;;;16.40;99.90;;;;;;6173495;28;20117;-77
2023/05/08 05:58:36;;;;;;;46.85;28.75;;;16.50;99.90;;;;;;6173387;28;20561;-77
2023/05/08 06:01:38;;;;;;;49.72;31.27;;;16.50;99.90;;;;;;6173166;28;20062;-77
2023/05/08 06:04:39;;;;;;;52.90;30.63;;;16.50;99.90;;;;;;6173020;28;20189;-76
2023/05/08 06:07:41;;;;;;;52.15;31.65;;;16.50;99.90;;;;;;6172753;28;20055;-76
2023/05/08 06:10:44;;;;;;;54.40;29.52;;;16.60;99.90;;;;;;6196650;28;20050;-76
2023/05/08 06:13:46;;;;;;;55.72;29.67;;;16.60;99.90;;;;;;6196843;28;20055;-76
2023/05/08 06:16:47;;;;;;;51.38;30.10;;;16.60;99.90;;;;;;6197315;28;20050;-77
2023/05/08 06:19:52;;;;;;;48.38;29.52;;;16.60;99.90;;;;;;6197648;28;20123;-76
2023/05/08 06:22:54;;;;;;;47.75;29.33;;;16.60;99.90;;;;;;6195698;28;20046;-76
2023/05/08 06:26:02;;;;;;;51.08;28.88;;;16.60;99.90;;;;;;6196303;28;20436;-77
2023/05/08 06:29:04;;;;;;;51.72;27.48;;;16.70;99.90;;;;;;6197558;28;20053;-77
2023/05/08 06:32:06;;;;;;;54.95;29.35;;;16.70;99.90;;;;;;6197379;28;20054;-76
2023/05/08 06:35:08;;;;;;;51.10;26.42;;;16.70;99.90;;;;;;6196487;28;20046;-76
2023/05/08 06:38:10;;;;;;;47.97;28.67;;;16.80;99.90;;;;;;6196633;28;20509;-76
2023/05/08 06:41:13;;;;;;;48.63;28.73;;;16.80;99.90;;;;;;6183048;28;20039;-76
2023/05/08 06:44:15;;;;;;;47.13;27.98;;;16.90;99.90;;;;;;6172057;28;20051;-76
2023/05/08 06:47:16;;;;;;;48.80;28.42;;;16.90;99.90;;;;;;6173113;28;20120;-77
2023/05/08 06:50:18;;;;;;;50.70;24.25;;;17.00;99.90;;;;;;6192762;23;20047;-78
2023/05/08 06:53:20;;;;;;;49.25;26.65;;;17.10;99.90;;;;;;6249813;28;20504;-78
2023/05/08 06:56:23;;;;;;;44.83;27.13;;;17.10;99.90;;;;;;6255070;28;20482;-79
2023/05/08 06:59:25;;;;;;;41.45;22.85;;;17.20;99.90;;;;;;6255233;28;20049;-78
2023/05/08 07:02:27;;;;;;;41.95;24.02;;;17.20;99.90;;;;;;6265334;28;20565;-79
2023/05/08 07:05:29;;;;;;;43.65;24.55;;;17.30;99.90;;;;;;6250051;28;20530;-79
2023/05/08 07:08:31;;;;;;;36.83;23.92;;;17.30;99.90;;;;;;6259172;28;20071;-79
2023/05/08 07:11:34;;;;;;;34.45;23.40;;;17.40;99.90;;;;;;6263399;28;20049;-78
2023/05/08 07:14:35;;;;;;;38.40;23.65;;;17.40;99.90;;;;;;6258403;28;20041;-79
2023/05/08 07:17:37;;;;;;;30.88;23.40;;;17.50;99.90;;;;;;6269710;28;20044;-80
2023/05/08 07:20:39;;;;;;;36.80;23.70;;;17.50;99.90;;;;;;6280539;28;20063;-80
2023/05/08 07:23:40;;;;;;;35.10;23.10;;;17.60;99.90;;;;;;6280051;28;20051;-79
2023/05/08 07:26:43;;;;;;;33.47;22.88;;;17.60;99.90;;;;;;6276353;28;20041;-79
2023/05/08 07:29:45;;;;;;;33.35;23.10;;;17.60;99.90;;;;;;6279293;28;20049;-79
2023/05/08 07:32:47;;;;;;;34.70;22.33;;;17.60;99.90;;;;;;6283069;28;20041;-79
2023/05/08 07:35:49;;;;;;;31.88;21.40;;;17.70;99.90;;;;;;6282089;28;20049;-81
2023/05/08 07:38:50;;;;;;;32.38;23.40;;;17.70;99.90;;;;;;6282694;28;20055;-79
2023/05/08 07:41:53;;;;;;;33.95;21.65;;;17.60;99.90;;;;;;6280795;28;20061;-79
2023/05/08 07:44:55;;;;;;;36.53;24.02;;;17.70;99.90;;;;;;6288031;28;20057;-79
2023/05/08 07:47:58;;;;;;;39.47;21.45;;;17.80;99.90;;;;;;6285661;28;20052;-79
2023/05/08 07:51:00;;;;;;;34.05;21.10;;;17.70;99.90;;;;;;6280274;28;20052;-80
2023/05/08 07:54:02;;;;;;;29.42;21.38;;;17.70;99.90;;;;;;6288756;28;20052;-81
2023/05/08 07:57:05;;;;;;;36.58;22.90;;;17.80;99.90;;;;;;6284208;28;20056;-81
2023/05/08 08:00:08;;;;;;;33.38;22.95;;;17.70;99.90;;;;;;6280702;28;20067;-78
2023/05/08 08:03:10;;;;;;;37.40;24.35;;;17.70;99.90;;;;;;6282554;28;20068;-79
2023/05/08 08:06:12;;;;;;;32.97;24.45;;;17.70;99.90;;;;;;6282672;28;20044;-79
2023/05/08 08:09:13;;;;;;;30.35;22.50;;;17.60;99.90;;;;;;6282236;28;20061;-79
2023/05/08 08:12:16;;;;;;;36.60;23.25;;;17.70;99.90;;;;;;6282014;28;20491;-79
2023/05/08 08:15:18;;;;;;;27.25;22.00;;;17.70;99.90;;;;;;6281006;28;20053;-79
2023/05/08 08:18:20;;;;;;;27.52;21.15;;;17.70;99.90;;;;;;6281292;28;20060;-79
2023/05/08 08:21:21;;;;;;;28.35;21.70;;;17.70;99.90;;;;;;6278077;28;20052;-78
2023/05/08 08:24:24;;;;;;;25.38;22.33;;;17.70;99.90;;;;;;6286462;28;20041;-79
2023/05/08 08:27:27;;;;;;;26.48;23.23;;;17.70;99.90;;;;;;6284570;28;20079;-80
2023/05/08 08:30:28;;;;;;;26.25;20.75;;;17.80;99.90;;;;;;6283413;28;20044;-79
2023/05/08 08:33:30;;;;;;;29.00;21.58;;;17.80;99.90;;;;;;6285150;28;20045;-79
2023/05/08 08:36:32;;;;;;;31.23;22.23;;;17.90;99.90;;;;;;6279414;28;20052;-81
2023/05/08 08:39:34;;;;;;;27.83;22.00;;;18.00;99.90;;;;;;6293887;28;20056;-80
2023/05/08 08:42:37;;;;;;;25.23;21.60;;;18.10;99.90;;;;;;6285438;28;20085;-80
2023/05/08 08:45:39;;;;;;;25.55;19.80;;;18.20;99.90;;;;;;6284856;28;20037;-80
2023/05/08 08:48:44;;;;;;;27.65;21.92;;;18.30;99.90;;;;;;6290028;28;20045;-81
2023/05/08 08:51:50;;;;;;;26.92;22.50;;;18.40;99.90;;;;;;6285969;28;20053;-81
2023/05/08 08:54:55;;;;;;;26.88;20.95;;;18.40;99.90;;;;;;6285036;28;20502;-80
2023/05/08 08:58:14;;;;;;;27.13;19.75;;;18.50;99.90;;;;;;6277833;28;20128;-79
2023/05/08 09:01:18;;;;;;;22.10;18.92;;;18.60;99.90;;;;;;6277109;28;20048;-79
2023/05/08 09:04:19;;;;;;;22.90;20.45;;;18.60;99.90;;;;;;6275165;28;20041;-79
2023/05/08 09:07:23;;;;;;;24.90;21.27;;;18.70;99.90;;;;;;6277737;28;20067;-79
2023/05/08 09:10:24;;;;;;;22.67;17.75;;;18.70;99.90;;;;;;6273758;28;20072;-79
2023/05/08 09:13:28;;;;;;;27.00;18.42;;;18.70;99.90;;;;;;6279487;28;20037;-79
2023/05/08 09:16:30;;;;;;;22.48;19.60;;;18.70;99.90;;;;;;6279606;28;20048;-79
2023/05/08 09:19:33;;;;;;;20.92;17.27;;;18.70;99.90;;;;;;6277196;28;20115;-79
2023/05/08 09:22:36;;;;;;;25.15;19.58;;;18.80;99.90;;;;;;6281086;28;20053;-79
2023/05/08 09:25:41;;;;;;;22.42;18.77;;;18.80;99.90;;;;;;6279437;28;20051;-79
2023/05/08 09:28:44;;;;;;;20.42;17.65;;;18.90;99.90;;;;;;6277015;28;20048;-79
2023/05/08 09:31:47;;;;;;;19.55;16.85;;;19.00;99.90;;;;;;6277975;28;20132;-79
2023/05/08 09:34:53;;;;;;;17.83;16.00;;;19.10;99.90;;;;;;6279002;28;20040;-79
2023/05/08 09:37:54;;;;;;;19.77;17.63;;;19.20;99.90;;;;;;6278716;28;20072;-81
2023/05/08 09:41:06;;;;;;;20.83;18.00;;;19.30;99.90;;;;;;6278781;28;20056;-78
2023/05/08 09:44:09;;;;;;;17.38;15.57;;;19.60;99.90;;;;;;6280715;28;20051;-79
2023/05/08 09:47:12;;;;;;;21.20;18.42;;;19.70;99.90;;;;;;6274561;28;20585;-79
2023/05/08 09:50:14;;;;;;;17.92;14.98;;;19.90;99.90;;;;;;6276534;28;20101;-79
2023/05/08 09:53:16;;;;;;;19.23;16.33;;;20.00;99.90;;;;;;6277624;28;20511;-80
2023/05/08 09:56:29;;;;;;;17.40;15.55;;;20.00;99.90;;;;;;6280905;28;20053;-79
2023/05/08 09:59:32;;;;;;;23.40;16.52;;;20.20;99.90;;;;;;6277130;28;20442;-79
2023/05/08 10:02:34;;;;;;;18.65;15.73;;;20.20;99.90;;;;;;6276970;28;20064;-80
2023/05/08 10:05:37;;;;;;;17.17;15.30;;;20.50;99.90;;;;;;6278258;28;20051;-79
2023/05/08 10:08:38;;;;;;;19.17;16.77;;;20.50;99.90;;;;;;6277856;28;20052;-79
2023/05/08 10:11:42;;;;;;;16.27;14.57;;;20.70;99.90;;;;;;6278501;28;20056;-79
2023/05/08 10:14:45;;;;;;;18.33;15.40;;;20.90;99.90;;;;;;6282309;28;20050;-80
2023/05/08 10:17:54;;;;;;;18.90;17.00;;;21.00;99.90;;;;;;6279114;28;20037;-79
2023/05/08 10:21:00;;;;;;;19.20;17.20;;;21.10;99.90;;;;;;6277924;28;20090;-80
2023/05/08 10:24:05;;;;;;;18.20;16.38;;;21.30;99.90;;;;;;6270973;28;20036;-79
2023/05/08 10:27:13;;;;;;;21.70;19.35;;;21.50;99.90;;;;;;6281482;28;20048;-78
2023/05/08 10:30:19;;;;;;;19.52;16.92;;;21.70;99.90;;;;;;6281232;28;20048;-79
2023/05/08 10:33:29;;;;;;;21.55;17.45;;;21.80;99.90;;;;;;6277875;28;20045;-79
2023/05/08 10:36:32;;;;;;;20.48;18.38;;;21.80;99.90;;;;;;6278275;28;20045;-78
2023/05/08 10:39:34;;;;;;;18.75;16.98;;;21.70;99.90;;;;;;6279737;28;20392;-79
2023/05/08 10:42:37;;;;;;;21.27;19.17;;;21.70;99.90;;;;;;6276991;28;20521;-80
2023/05/08 10:45:40;;;;;;;22.77;20.42;;;21.70;99.90;;;;;;6276683;28;20120;-78
2023/05/08 10:48:50;;;;;;;21.02;18.90;;;21.80;99.90;;;;;;6277925;28;20059;-79
2023/05/08 10:52:02;;;;;;;18.73;16.92;;;21.80;99.90;;;;;;6276152;28;20526;-79
2023/05/08 10:55:22;;;;;;;18.67;16.65;;;21.80;99.90;;;;;;6278731;28;20171;-81
2023/05/08 10:58:32;;;;;;;19.20;17.08;;;21.80;99.90;;;;;;6274040;28;20045;-79
2023/05/08 11:01:39;;;;;;;18.45;16.23;;;21.90;99.90;;;;;;6279434;28;20045;-80
2023/05/08 11:04:40;;;;;;;16.63;14.95;;;22.00;99.90;;;;;;6282048;28;20044;-78
2023/05/08 11:07:55;;;;;;;15.15;13.85;;;22.20;99.90;;;;;;6277113;28;20052;-79
2023/05/08 11:11:07;;;;;;;15.75;14.23;;;22.50;99.90;;;;;;6280655;28;20068;-79
2023/05/08 11:14:16;;;;;;;16.77;14.93;;;22.70;99.90;;;;;;6280355;28;20037;-80
2023/05/08 11:17:25;;;;;;;16.88;14.98;;;22.80;99.90;;;;;;6278629;28;20045;-80
2023/05/08 11:20:38;;;;;;;14.95;13.45;;;22.70;99.90;;;;;;6278701;28;20040;-80
2023/05/08 11:23:40;;;;;;;15.48;13.48;;;22.40;99.90;;;;;;6282601;28;20044;-79
2023/05/08 11:26:42;;;;;;;15.10;12.98;;;22.20;99.90;;;;;;6278374;28;20797;-79
2023/05/08 11:29:44;;;;;;;15.27;13.77;;;22.20;99.90;;;;;;6279950;28;20511;-79
2023/05/08 11:33:15;;;;;;;17.20;13.23;;;22.10;99.90;;;;;;6278635;28;20361;-79
2023/05/08 11:36:19;;;;;;;16.15;12.52;;;22.00;99.90;;;;;;6278456;28;20065;-80
2023/05/08 11:39:21;;;;;;;14.00;12.70;;;22.00;99.90;;;;;;6280974;28;20068;-80
2023/05/08 11:42:35;;;;;;;11.70;10.13;;;21.80;99.90;;;;;;6284681;28;20058;-81
2023/05/08 11:45:40;;;;;;;11.88;10.25;;;21.50;99.90;;;;;;6281468;28;20051;-78
2023/05/08 11:48:43;;;;;;;11.85;10.75;;;21.20;99.90;;;;;;6279481;28;20052;-81
2023/05/08 11:51:46;;;;;;;9.68;8.57;;;21.10;99.90;;;;;;6281670;28;20048;-79
2023/05/08 11:54:48;;;;;;;10.48;9.48;;;21.00;99.90;;;;;;6276638;28;20049;-80
2023/05/08 11:57:55;;;;;;;13.05;9.63;;;20.80;99.90;;;;;;6276624;28;20052;-79
2023/05/08 12:00:57;;;;;;;11.70;9.10;;;20.60;99.90;;;;;;6276761;28;20522;-79
2023/05/08 12:04:04;;;;;;;10.38;9.20;;;20.60;99.90;;;;;;6280888;28;20515;-79
2023/05/08 12:07:06;;;;;;;;;;;20.70;99.90;;;;;;6276520;28;20041;-79
2023/05/08 12:10:09;;;;;;;8.27;7.53;;;20.70;99.90;;;;;;6278219;28;19927;-79
2023/05/08 12:13:17;;;;;;;8.23;7.53;;;20.70;99.90;;;;;;6280270;28;20044;-82
2023/05/08 12:16:20;;;;;;;7.18;6.40;;;20.70;99.90;;;;;;6279952;28;20048;-80
2023/05/08 12:19:23;;;;;;;8.27;7.57;;;20.80;99.90;;;;;;6280249;28;20068;-80
2023/05/08 12:22:24;;;;;;;9.05;6.60;;;20.90;99.90;;;;;;6285887;28;20041;-80
2023/05/08 12:25:26;;;;;;;7.57;6.88;;;21.00;99.90;;;;;;6282959;28;20045;-79
2023/05/08 12:28:28;;;;;;;5.60;5.10;;;21.10;99.90;;;;;;6281597;28;20072;-79
2023/05/08 12:31:30;;;;;;;6.78;6.20;;;21.10;99.90;;;;;;6273325;28;20052;-80
2023/05/08 12:34:34;;;;;;;6.40;5.78;;;21.00;99.90;;;;;;6278890;28;20049;-81
2023/05/08 12:37:36;;;;;;;5.47;5.05;;;21.00;99.90;;;;;;6278536;28;20040;-79
2023/05/08 12:40:42;;;;;;;6.13;4.75;;;21.00;99.90;;;;;;6274838;28;20102;-80
2023/05/08 12:43:47;;;;;;;5.70;4.97;;;21.00;99.90;;;;;;6275228;28;20052;-80
2023/05/08 12:46:51;;;;;;;6.78;6.05;;;21.10;99.90;;;;;;6278790;28;20498;-79
2023/05/08 12:49:57;;;;;;;6.97;6.28;;;21.20;99.90;;;;;;6277032;28;20059;-80
2023/05/08 12:53:03;;;;;;;6.85;5.32;;;21.10;99.90;;;;;;6249363;22;20065;-77
2023/05/08 12:56:05;;;;;;;5.75;5.25;;;21.10;99.90;;;;;;6212639;28;20056;-78
2023/05/08 12:59:07;;;;;;;4.20;3.58;;;21.10;99.90;;;;;;6207150;28;20058;-78
2023/05/08 13:02:14;;;;;;;11.73;5.28;;;21.20;99.90;;;;;;6211286;28;20574;-78
2023/05/08 13:05:20;;;;;;;5.03;4.40;;;21.30;99.90;;;;;;6208815;28;20054;-78
2023/05/08 13:08:30;;;;;;;4.78;4.32;;;21.40;99.90;;;;;;6207108;28;20050;-77
2023/05/08 13:11:33;;;;;;;5.63;4.75;;;21.50;99.90;;;;;;6208297;28;20050;-78
2023/05/08 13:14:34;;;;;;;4.53;4.13;;;21.50;99.90;;;;;;6209443;28;20053;-78
2023/05/08 13:17:36;;;;;;;6.03;5.45;;;21.60;99.90;;;;;;6210228;28;20404;-78
2023/05/08 13:20:41;;;;;;;5.57;4.80;;;21.60;99.90;;;;;;6206290;28;20054;-78
2023/05/08 13:23:43;;;;;;;7.80;3.95;;;21.70;99.90;;;;;;6201982;28;20049;-78
2023/05/08 13:26:45;;;;;;;4.32;3.95;;;21.80;99.90;;;;;;6211548;28;20097;-78
2023/05/08 13:29:47;;;;;;;3.83;3.53;;;21.90;99.90;;;;;;6206934;28;20076;-77
2023/05/08 13:32:49;;;;;;;3.85;3.55;;;22.00;99.90;;;;;;6204173;28;20057;-78
2023/05/08 13:35:52;;;;;;;5.05;4.55;;;22.00;99.90;;;;;;6207512;28;20401;-78
2023/05/08 13:38:56;;;;;;;5.03;4.63;;;22.00;99.90;;;;;;6210633;28;20046;-78
2023/05/08 13:41:57;;;;;;;5.13;4.63;;;21.80;99.90;;;;;;6207728;28;20075;-78
2023/05/08 13:44:59;;;;;;;4.60;4.15;;;21.70;99.90;;;;;;6209430;28;20050;-78
2023/05/08 13:48:01;;;;;;;4.90;4.35;;;21.70;99.90;;;;;;6208153;28;20489;-78
2023/05/08 13:51:04;;;;;;;4.85;4.43;;;21.50;99.90;;;;;;6205688;28;20049;-78
2023/05/08 13:54:06;;;;;;;5.13;4.72;;;21.60;99.90;;;;;;6205460;28;20041;-78
2023/05/08 13:57:07;;;;;;;4.35;3.95;;;21.60;99.90;;;;;;6206695;28;20523;-77
2023/05/08 14:00:11;;;;;;;9.32;5.28;;;21.50;99.90;;;;;;6200894;28;20566;-77
2023/05/08 14:03:12;;;;;;;7.13;5.97;;;21.40;99.90;;;;;;6199128;28;20064;-78
2023/05/08 14:06:15;;;;;;;3.50;3.20;;;21.30;99.90;;;;;;6200257;28;20057;-77
2023/05/08 14:09:17;;;;;;;3.42;3.20;;;21.20;99.90;;;;;;6208073;28;20062;-78
2023/05/08 14:12:18;;;;;;;3.33;3.03;;;21.10;99.90;;;;;;6205653;28;20060;-78
2023/05/08 14:15:20;;;;;;;3.53;3.33;;;21.20;99.90;;;;;;6204416;28;20065;-78
2023/05/08 14:18:22;;;;;;;3.72;3.42;;;21.20;99.90;;;;;;6205098;28;20064;-78
2023/05/08 14:21:26;;;;;;;4.88;3.92;;;21.30;99.90;;;;;;6201629;28;20068;-78
2023/05/08 14:24:28;;;;;;;4.97;4.47;;;21.50;99.90;;;;;;6201972;28;20477;-77
2023/05/08 14:27:29;;;;;;;5.05;4.65;;;21.70;99.90;;;;;;6217679;28;20519;-78
2023/05/08 14:30:31;;;;;;;6.53;5.53;;;21.60;99.90;;;;;;6204281;28;20046;-77
2023/05/08 14:33:33;;;;;;;7.68;5.85;;;21.50;99.90;;;;;;6208689;28;20049;-78
2023/05/08 14:36:36;;;;;;;5.70;5.10;;;21.40;99.90;;;;;;6206431;28;20061;-78
2023/05/08 14:39:37;;;;;;;7.75;6.20;;;21.40;99.90;;;;;;6206628;28;20050;-78
2023/05/08 14:42:39;;;;;;;8.30;7.60;;;21.40;99.90;;;;;;6204390;28;20057;-77
2023/05/08 14:45:41;;;;;;;10.50;6.53;;;21.50;99.90;;;;;;6199020;28;20437;-78
2023/05/08 14:48:42;;;;;;;8.20;7.40;;;21.50;99.90;;;;;;6201520;28;20054;-77
2023/05/08 14:51:46;;;;;;;6.88;6.20;;;21.90;99.90;;;;;;6206868;28;20141;-78
2023/05/08 14:54:51;;;;;;;9.10;8.02;;;22.40;99.90;;;;;;6201962;28;20199;-78
2023/05/08 14:57:53;;;;;;;8.02;7.32;;;22.40;99.90;;;;;;6198435;28;20106;-78
2023/05/08 15:00:55;;;;;;;7.95;7.25;;;22.20;99.90;;;;;;6192015;28;20057;-78
2023/05/08 15:03:56;;;;;;;9.18;8.38;;;22.10;99.90;;;;;;6200482;28;20051;-77
2023/05/08 15:06:59;;;;;;;9.48;7.88;;;22.20;99.90;;;;;;6198681;28;20041;-78
2023/05/08 15:10:01;;;;;;;7.85;7.00;;;22.10;99.90;;;;;;6199942;28;20091;-77
2023/05/08 15:13:03;;;;;;;8.77;7.95;;;21.80;99.90;;;;;;6196729;28;20054;-77
2023/05/08 15:16:05;;;;;;;7.63;6.97;;;21.80;99.90;;;;;;6197328;28;20140;-77
2023/05/08 15:19:08;;;;;;;8.70;7.53;;;21.90;99.90;;;;;;6197570;28;20057;-77
2023/05/08 15:22:11;;;;;;;9.98;8.95;;;21.90;99.90;;;;;;6204423;28;20100;-77
2023/05/08 15:25:13;;;;;;;8.18;7.15;;;21.80;99.90;;;;;;6199222;28;20830;-77
2023/05/08 15:28:14;;;;;;;9.65;8.65;;;21.80;99.90;;;;;;6198745;28;20057;-77
2023/05/08 15:31:16;;;;;;;8.30;7.63;;;21.80;99.90;;;;;;6201825;28;20051;-77
2023/05/08 15:34:18;;;;;;;9.30;8.38;;;21.90;99.90;;;;;;6201640;28;20038;-78
2023/05/08 15:37:21;;;;;;;10.70;8.50;;;21.90;99.90;;;;;;6200494;28;20047;-78
2023/05/08 15:40:23;;;;;;;8.60;7.30;;;22.00;99.90;;;;;;6201396;28;20043;-77